aviador You're here:

LEVC Decoded Metar

VALENCIA in SPAIN
Report Time2017-10-17 05:30:00
UTC Time2017-10-17 06:01:16
Flight Rules vfr VFR
WindVRB at 02 kt
Visibility9999 m
Phenomena:N/A
Clouds:Broken 040 Hf
Expected CloudBase > 1,600 ft AGL from Temp-Dew spread
Ceiling4,000 ft
Temp18°C (ISA +3)
Dew Point14°C (78% RH)
QNH1023 hPa
Density Alt479 ft
Elevation203 ft
Report Wrong Elevation
Raw Report
LEVC 170530Z VRB02KT 9999 BKN040 18/14 Q1023 NOSIG=

Extra information for LEVC:More info

Metar Taf Metar & Taf Last 4 Metars F.Rules Stats Wind Profile Meteogram Temp Stats Airport Information Weather charts Add Link Nearby VenuesMetar ALERT Operation Metar Decoded Social comments

Webcam Valencia